Mojave, CA

8:18 AM PDT on August 20, 2014 (GMT -0700)
Edwards AFB North Base | Change Station
CLOSE
Current Station
Airport
Location: Edwards AFB North Base,
Elevation: 2300 ft
Nearby Weather Stations

Elev 2300 ft 34.99 °N, 117.86 °W | Updated 23 minutes ago

Clear
Clear
63 °F
Feels Like 63 °F
N
7
Wind Variable Wind from South

Today
High -- | Low -- °F
--% Chance of Precip.
Yesterday
High -- | Low -- °F
Precip. -- in
6:16 AM 7:34 PM
Waning Crescent, 21% visible
Pressure 29.91 in
Visibility 10.0 miles
Clouds Clear
Dew Point 44 °F
Humidity 50%
Rainfall 0.00 in
Snow Depth Not available.
UV 1 out of 12
Pollen 7.80 out of 12
Ozone Good
Flu Activity Not available.
METAR K9L2 201455Z AUTO 17006KT 10SM CLR 17/07 A2994 RMK AO2 SLP126 T01720067 51021 TSNO $

More Conditions Fewer Conditions

Pressure 29.91 in
Visibility 10.0 miles
Clouds Clear
Dew Point 44 °F
Humidity 50%
Rainfall 0.00 in
Snow Depth Not available.
UV 1 out of 12
Pollen 7.80 out of 12
Ozone Good
Flu Activity Not available.
METAR K9L2 201455Z AUTO 17006KT 10SM CLR 17/07 A2994 RMK AO2 SLP126 T01720067 51021 TSNO $

More Conditions Fewer Conditions

10-Day Weather Forecast

Almanac

Astronomy

Aug. 20, 2014 Rise Set
Actual Time 6:16 AM PDT 7:34 PM PDT
Civil Twilight 5:50 AM PDT 8:01 PM PDT
Nautical Twilight 5:18 AM PDT 8:32 PM PDT
Astronomical Twilight 4:45 AM PDT 9:05 PM PDT
Moon 2:04 AM PDT 4:19 PM PDT
Length of Visible Light 14h 11m
Length of Day
13h 18m
Tomorrow will be 2m 0s shorter.
Waning Crescent, 21% of the Moon is Illuminated
Today
Waning Crescent
Aug 25
New
Sep 2
First Quarter
Sep 8
Full
Sep 15
Last Quarter

Today's Extremes

State Highs State Lows

Community

WunderPhotos

Upload Photos

1,745,661 photos uploaded!

Nearby

Air Quality

  Air Quality AQ Index Pollutant
Yesterday Good
OZONE
Current Good
OZONE
Wednesday Good
PM10
Wednesday Good
OZONE
Wednesday Good
CO
Wednesday Good
NO2

Snow Depth

Station Depth Elevation
Leavitt Lake 0 in 9400 ft
Leavitt Meadows 1 in 7200 ft
Sonora Pass 0 in 8800 ft
Summit Meadow 0 in 9122 ft
Ebbetts Pass 0 in 8700 ft

Earthquake Activity

City Distance Mag. Time & Date
Malibu Beach, California 80 miles 3.4 10:03 AM PDT
2014-08-15
Kettleman City, California 126 miles 2.9 11:32 PM PDT
2014-08-14
Yucca Valley, California 110 miles 3.8 8:57 PM PDT
2014-08-14
Ojai, California 57 miles 2.6 8:43 PM PDT
2014-08-13
Minimum magnitude displayed is 2.5.

Coastal Water Temperatures

Place Temperature
No Stations Reporting

Nearby Weather Stations